Time;durP1;ratioP1;P1;durP2;ratioP2;P2;SDS_P1;SDS_P2;PMS_P1;PMS_P2;Temp;Humidity;BMP_temperature;BMP_pressure;BME280_temperature;BME280_humidity;BME280_pressure;Samples;Min_cycle;Max_cycle;Signal;HPM_P1;HPM_P2
2022/01/04 00:01:16;;;;;;;94.45;48.65;;;8.00;99.90;;;;;;5033862;28;20496;-88
2022/01/04 00:04:10;;;;;;;86.60;42.05;;;7.90;99.90;;;;;;5031006;28;20037;-88
2022/01/04 00:07:28;;;;;;;;;;;;;;;;;;;;;
2022/01/04 00:10:01;;;;;;;80.28;46.13;;;7.90;99.90;;;;;;5027300;28;20040;-89
2022/01/04 00:15:11;;;;;;;73.30;41.53;;;7.90;99.90;;;;;;5038274;28;20118;-89
2022/01/04 00:18:07;;;;;;;81.70;42.28;;;8.00;99.90;;;;;;5033453;28;20061;-89
2022/01/04 00:20:35;;;;;;;80.07;41.78;;;8.00;99.90;;;;;;5033943;28;20017;-89
2022/01/04 00:23:20;;;;;;;84.95;44.70;;;8.00;99.90;;;;;;5019949;28;20184;-89
2022/01/04 00:25:47;;;;;;;81.60;44.70;;;8.00;99.90;;;;;;5019522;28;20095;-88
2022/01/04 00:28:22;;;;;;;77.72;44.28;;;8.00;99.90;;;;;;5007986;28;20392;-89
2022/01/04 00:30:48;;;;;;;78.55;42.92;;;8.00;99.90;;;;;;5016096;28;20119;-89
2022/01/04 00:33:17;;;;;;;75.53;43.17;;;8.00;99.90;;;;;;5019932;28;20021;-89
2022/01/04 00:35:48;;;;;;;77.50;42.65;;;8.10;99.90;;;;;;5023358;28;20040;-88
2022/01/04 00:38:15;;;;;;;73.32;42.63;;;8.10;99.90;;;;;;5012276;28;20085;-88
2022/01/04 00:41:01;;;;;;;73.22;42.05;;;8.20;99.90;;;;;;5019566;28;20076;-88
2022/01/04 00:50:28;;;;;;;79.22;42.50;;;8.20;99.90;;;;;;5027692;28;20087;-88
2022/01/04 01:00:40;;;;;;;67.65;41.35;;;8.40;99.90;;;;;;5001439;28;20062;-84
2022/01/04 01:03:09;;;;;;;72.93;41.25;;;8.40;99.90;;;;;;5011122;28;20026;-84
2022/01/04 01:06:09;;;;;;;75.28;44.78;;;8.40;99.90;;;;;;5011575;28;20038;-84
2022/01/04 01:09:09;;;;;;;80.60;44.90;;;8.40;99.90;;;;;;4974231;28;20030;-85
2022/01/04 01:12:25;;;;;;;75.85;45.90;;;8.50;99.90;;;;;;5022389;28;20708;-84
2022/01/04 01:22:12;;;;;;;80.55;45.92;;;8.70;99.90;;;;;;4978410;28;20155;-85
2022/01/04 01:24:38;;;;;;;77.43;46.15;;;8.80;99.90;;;;;;4991353;28;20053;-84
2022/01/04 01:27:23;;;;;;;80.43;46.00;;;8.80;99.90;;;;;;4970144;28;20697;-84
2022/01/04 01:30:10;;;;;;;71.90;43.13;;;8.90;99.90;;;;;;5012803;28;20072;-84
2022/01/04 01:33:38;;;;;;;;;;;;;;;;;;;;;
2022/01/04 02:00:11;;;;;;;78.65;49.03;;;8.70;99.90;;;;;;4824776;29;20141;-84
2022/01/04 02:40:33;;;;;;;91.38;48.42;;;8.60;99.90;;;;;;4715476;30;20144;-85
2022/01/04 02:43:48;;;;;;;84.93;48.78;;;8.60;99.90;;;;;;4731887;30;20094;-86
2022/01/04 02:54:41;;;;;;;;;;;;;;;;;;;;;
2022/01/04 03:21:38;;;;;;;92.63;47.85;;;8.50;99.90;;;;;;4849656;29;20446;-85
2022/01/04 03:41:30;;;;;;;97.07;49.75;;;8.50;99.90;;;;;;4890098;28;20034;-87
2022/01/04 03:44:56;;;;;;;102.38;50.03;;;8.50;99.90;;;;;;4984870;28;20035;-87
2022/01/04 05:43:05;;;;;;;;;;;;;;;;;;;;;
2022/01/04 05:51:58;;;;;;;79.30;42.17;;;8.60;99.90;;;;;;4851221;29;20053;-85
2022/01/04 05:56:03;;;;;;;83.80;43.63;;;8.60;99.90;;;;;;4858167;29;20037;-85
2022/01/04 05:58:22;;;;;;;70.32;37.83;;;8.50;99.90;;;;;;4801997;29;20575;-86
2022/01/04 06:01:02;;;;;;;71.40;38.60;;;8.60;99.90;;;;;;4824314;29;20064;-86
2022/01/04 06:04:24;;;;;;;62.97;36.22;;;8.60;99.90;;;;;;4927117;29;20040;-86
2022/01/04 06:07:08;;;;;;;56.40;33.78;;;8.70;99.90;;;;;;4934729;29;20410;-84
2022/01/04 06:09:46;;;;;;;59.05;34.28;;;8.80;99.90;;;;;;4908967;29;20043;-85
2022/01/04 06:15:42;;;;;;;64.53;36.15;;;8.80;99.90;;;;;;4950595;28;20026;-86
2022/01/04 06:18:33;;;;;;;53.72;32.85;;;8.80;99.90;;;;;;5011891;28;20037;-86
2022/01/04 06:20:59;;;;;;;;;;;8.80;99.90;;;;;;5015987;28;20030;-86
2022/01/04 06:23:35;;;;;;;56.58;31.98;;;8.80;99.90;;;;;;4984090;28;19912;-85
2022/01/04 06:26:32;;;;;;;54.10;33.47;;;8.80;99.90;;;;;;4988711;28;20053;-86
2022/01/04 06:29:12;;;;;;;52.10;31.92;;;8.80;99.90;;;;;;5005119;28;20029;-85
2022/01/04 06:32:10;;;;;;;53.28;30.85;;;8.80;99.90;;;;;;4996439;28;20485;-87
2022/01/04 06:34:37;;;;;;;40.58;26.80;;;8.80;99.90;;;;;;4997180;28;20104;-85
2022/01/04 06:43:55;;;;;;;33.65;22.17;;;8.80;99.90;;;;;;4954358;28;20529;-86
2022/01/04 06:46:51;;;;;;;37.03;24.63;;;8.80;99.90;;;;;;5029849;28;20487;-85
2022/01/04 06:49:23;;;;;;;42.30;26.00;;;8.70;99.90;;;;;;5004571;28;20116;-85
2022/01/04 06:52:37;;;;;;;42.13;26.23;;;8.80;99.90;;;;;;5014135;28;20025;-84
2022/01/04 06:54:43;;;;;;;33.72;24.35;;;8.80;99.90;;;;;;5010291;28;20026;-85
2022/01/04 06:57:38;;;;;;;39.72;26.20;;;8.80;99.90;;;;;;4988234;28;20499;-85
2022/01/04 07:00:17;;;;;;;42.08;26.48;;;8.80;99.90;;;;;;5008201;28;20060;-85
2022/01/04 07:02:49;;;;;;;37.17;24.10;;;8.80;99.90;;;;;;5015368;28;20088;-89
2022/01/04 07:05:15;;;;;;;32.22;23.63;;;8.80;99.90;;;;;;5005708;28;20522;-86
2022/01/04 07:08:10;;;;;;;33.42;22.95;;;8.90;99.90;;;;;;5032209;28;20037;-89
2022/01/04 07:10:36;;;;;;;35.20;22.33;;;8.90;99.90;;;;;;5012244;28;20029;-90
2022/01/04 07:13:17;;;;;;;36.67;23.30;;;8.80;99.90;;;;;;5034090;28;20017;-89
2022/01/04 07:15:51;;;;;;;34.55;23.85;;;8.80;99.90;;;;;;4988379;28;20022;-89
2022/01/04 07:18:20;;;;;;;31.40;21.58;;;8.80;99.90;;;;;;5011945;28;20108;-89
2022/01/04 07:20:49;;;;;;;34.58;21.75;;;8.80;99.90;;;;;;4997457;28;20030;-89
2022/01/04 07:23:22;;;;;;;36.13;22.30;;;8.80;99.90;;;;;;5005911;28;20030;-89
2022/01/04 07:25:51;;;;;;;31.15;21.33;;;8.80;99.90;;;;;;4999562;28;20045;-89
2022/01/04 07:28:25;;;;;;;26.80;20.02;;;8.80;99.90;;;;;;5017356;28;20027;-88
2022/01/04 07:30:56;;;;;;;30.33;20.42;;;8.90;99.90;;;;;;5012124;28;20400;-90
2022/01/04 07:33:22;;;;;;;28.98;21.17;;;8.90;99.90;;;;;;5031649;28;20472;-89
2022/01/04 07:35:51;;;;;;;29.63;19.25;;;8.90;99.90;;;;;;5000184;28;20041;-90
2022/01/04 07:38:16;;;;;;;30.05;19.05;;;9.00;99.90;;;;;;4976943;28;20531;-87
2022/01/04 07:40:42;;;;;;;34.25;20.80;;;9.00;99.90;;;;;;4998725;28;20034;-87
2022/01/04 07:43:12;;;;;;;27.08;20.48;;;9.00;99.90;;;;;;4996109;28;20057;-88
2022/01/04 07:45:46;;;;;;;30.88;21.83;;;9.00;99.90;;;;;;4996212;28;20038;-88
2022/01/04 07:48:12;;;;;;;31.42;20.45;;;9.00;99.90;;;;;;4991823;28;20034;-88
2022/01/04 07:50:42;;;;;;;25.20;18.48;;;9.00;99.90;;;;;;5012638;28;20382;-88
2022/01/04 07:53:08;;;;;;;30.55;19.90;;;9.00;99.90;;;;;;4996384;28;20030;-88
2022/01/04 07:55:34;;;;;;;28.00;20.65;;;9.00;99.90;;;;;;5021462;28;20170;-88
2022/01/04 07:58:04;;;;;;;33.45;20.77;;;9.10;99.90;;;;;;5013896;28;20064;-89
2022/01/04 08:00:30;;;;;;;29.80;19.63;;;9.10;99.90;;;;;;5007249;28;20396;-87
2022/01/04 08:03:03;;;;;;;31.55;20.60;;;9.20;99.90;;;;;;5016021;28;20036;-87
2022/01/04 08:05:32;;;;;;;29.30;19.88;;;9.20;99.90;;;;;;5018230;28;20045;-88
2022/01/04 08:07:57;;;;;;;28.92;19.70;;;9.20;99.90;;;;;;4995605;28;20025;-88
2022/01/04 08:10:23;;;;;;;27.17;19.65;;;9.20;99.90;;;;;;5001539;28;20042;-88
2022/01/04 08:12:49;;;;;;;32.75;21.77;;;9.10;99.90;;;;;;5003574;28;20021;-89
2022/01/04 08:15:16;;;;;;;27.95;21.02;;;9.20;99.90;;;;;;5007469;28;20034;-89
2022/01/04 08:18:03;;;;;;;26.30;20.02;;;9.20;99.90;;;;;;5015563;28;20472;-89
2022/01/04 08:20:29;;;;;;;30.83;21.35;;;9.20;99.90;;;;;;5009782;28;20165;-89
2022/01/04 08:22:55;;;;;;;39.70;25.08;;;9.20;99.90;;;;;;5004676;28;20109;-91
2022/01/04 08:25:20;;;;;;;39.25;25.58;;;9.10;99.90;;;;;;5007127;28;20061;-91
2022/01/04 08:27:49;;;;;;;46.22;25.92;;;9.00;99.90;;;;;;5017906;28;20026;-88
2022/01/04 08:30:15;;;;;;;39.55;25.02;;;8.90;99.90;;;;;;4995462;28;20038;-91
2022/01/04 08:32:42;;;;;;;51.38;28.92;;;8.90;99.90;;;;;;4993405;28;20022;-90
2022/01/04 08:35:08;;;;;;;41.53;25.98;;;8.70;99.90;;;;;;5013859;28;20021;-90
2022/01/04 08:37:35;;;;;;;42.03;27.52;;;8.70;99.90;;;;;;5010572;28;20040;-91
2022/01/04 08:40:39;;;;;;;45.83;26.77;;;8.70;99.90;;;;;;5027525;28;20370;-88
2022/01/04 08:43:14;;;;;;;45.78;27.95;;;8.70;99.90;;;;;;4989404;28;20497;-88
2022/01/04 08:45:43;;;;;;;42.67;28.48;;;8.80;99.90;;;;;;5023132;28;20037;-89
2022/01/04 08:48:18;;;;;;;44.67;29.17;;;8.80;99.90;;;;;;5031372;28;20017;-88
2022/01/04 08:51:04;;;;;;;47.22;28.77;;;8.70;99.90;;;;;;5006848;28;20026;-89
2022/01/04 08:53:30;;;;;;;43.92;28.13;;;8.70;99.90;;;;;;5032185;28;20025;-88
2022/01/04 08:56:02;;;;;;;44.03;25.92;;;8.80;99.90;;;;;;5029566;28;20095;-89
2022/01/04 08:58:29;;;;;;;46.03;26.80;;;8.90;99.90;;;;;;4995684;28;20033;-88
2022/01/04 09:00:55;;;;;;;46.28;28.13;;;8.90;99.90;;;;;;4996307;28;20041;-88
2022/01/04 09:03:24;;;;;;;45.20;28.48;;;9.00;99.90;;;;;;5010008;28;20030;-89
2022/01/04 09:06:11;;;;;;;45.65;27.20;;;9.10;99.90;;;;;;4992335;28;20049;-88
2022/01/04 09:08:36;;;;;;;50.15;30.90;;;9.20;99.90;;;;;;5013938;28;20453;-89
2022/01/04 09:11:03;;;;;;;49.75;27.50;;;9.30;99.90;;;;;;5026005;28;20053;-89
2022/01/04 09:13:39;;;;;;;36.92;24.02;;;9.30;99.90;;;;;;5000011;28;20539;-89
2022/01/04 09:18:46;;;;;;;36.28;23.38;;;9.30;99.90;;;;;;5014770;28;20069;-89
2022/01/04 09:21:16;;;;;;;42.00;27.00;;;9.20;99.90;;;;;;5014975;28;20110;-88
2022/01/04 09:23:53;;;;;;;40.45;26.70;;;9.10;99.90;;;;;;5012843;28;20224;-88
2022/01/04 09:26:26;;;;;;;49.67;33.10;;;9.10;99.90;;;;;;5012458;28;20033;-88
2022/01/04 09:29:03;;;;;;;55.10;36.80;;;9.00;99.90;;;;;;5005893;28;20464;-87
2022/01/04 09:31:29;;;;;;;64.78;38.45;;;8.90;99.90;;;;;;5019673;28;20034;-87
2022/01/04 09:33:58;;;;;;;66.75;40.55;;;8.60;99.90;;;;;;5012288;28;20480;-88
2022/01/04 09:36:24;;;;;;;68.10;39.53;;;8.50;99.90;;;;;;5030225;28;20034;-86
2022/01/04 09:38:49;;;;;;;54.75;35.30;;;8.60;99.90;;;;;;5012187;28;20029;-88
2022/01/04 09:41:15;;;;;;;55.15;36.40;;;8.60;99.90;;;;;;4991873;28;20425;-88
2022/01/04 09:43:42;;;;;;;56.25;35.38;;;8.70;99.90;;;;;;5013225;28;20025;-87
2022/01/04 09:46:07;;;;;;;52.15;33.97;;;8.70;99.90;;;;;;5025532;28;20034;-87
2022/01/04 09:48:33;;;;;;;48.03;33.55;;;8.80;99.90;;;;;;5011964;28;20036;-88
2022/01/04 09:51:00;;;;;;;57.47;35.63;;;8.70;99.90;;;;;;5017825;28;20030;-87
2022/01/04 09:53:26;;;;;;;47.53;31.73;;;8.70;99.90;;;;;;5035954;28;20036;-88
2022/01/04 09:55:55;;;;;;;46.72;31.23;;;8.70;99.90;;;;;;5014162;28;20029;-87
2022/01/04 09:58:24;;;;;;;45.53;29.42;;;8.70;99.90;;;;;;5031964;28;20079;-87
2022/01/04 10:00:58;;;;;;;47.63;32.28;;;8.70;99.90;;;;;;5002119;28;20037;-87
2022/01/04 10:03:29;;;;;;;47.85;31.00;;;8.60;99.90;;;;;;5016941;28;20108;-87
2022/01/04 10:06:07;;;;;;;47.50;31.60;;;8.60;99.90;;;;;;5015387;28;20034;-87
2022/01/04 10:09:08;;;;;;;44.90;30.25;;;8.70;99.90;;;;;;5001215;28;20050;-87
2022/01/04 10:11:42;;;;;;;48.05;30.10;;;8.60;99.90;;;;;;5014803;28;20457;-88
2022/01/04 10:14:32;;;;;;;50.30;34.42;;;8.60;99.90;;;;;;5007615;28;20026;-87
2022/01/04 10:17:01;;;;;;;51.78;32.72;;;8.50;99.90;;;;;;5015128;28;20018;-87
2022/01/04 10:19:53;;;;;;;52.90;32.75;;;8.50;99.90;;;;;;5016868;28;20040;-87
2022/01/04 10:22:35;;;;;;;51.28;34.92;;;8.60;99.90;;;;;;5016310;28;20037;-89
2022/01/04 10:25:00;;;;;;;57.28;36.10;;;8.70;99.90;;;;;;5020895;28;20037;-90
2022/01/04 10:27:35;;;;;;;55.85;33.60;;;8.80;99.90;;;;;;5011829;28;20025;-87
2022/01/04 10:30:17;;;;;;;47.97;29.80;;;8.90;99.90;;;;;;5006453;28;20038;-87
2022/01/04 10:32:58;;;;;;;46.20;30.00;;;8.80;99.90;;;;;;5018597;28;20033;-87
2022/01/04 10:35:30;;;;;;;46.33;30.15;;;8.70;99.90;;;;;;4997739;28;20049;-88
2022/01/04 10:38:10;;;;;;;50.13;29.27;;;8.70;99.90;;;;;;5025027;28;20033;-88
2022/01/04 10:40:37;;;;;;;53.97;31.42;;;8.90;99.90;;;;;;5027707;28;20029;-87
2022/01/04 10:43:19;;;;;;;48.65;29.90;;;8.80;99.90;;;;;;5021999;28;20600;-87
2022/01/04 10:45:46;;;;;;;52.00;31.08;;;8.90;99.90;;;;;;5028332;28;20627;-88
2022/01/04 10:48:26;;;;;;;41.10;28.88;;;8.80;99.90;;;;;;5006738;28;20038;-87
2022/01/04 10:51:20;;;;;;;50.05;33.67;;;8.80;99.90;;;;;;5017845;28;20177;-87
2022/01/04 10:54:00;;;;;;;51.00;33.50;;;8.80;99.90;;;;;;5002884;28;20435;-88
2022/01/04 10:56:34;;;;;;;44.97;29.98;;;8.90;99.90;;;;;;5032751;28;20026;-88
2022/01/04 10:59:04;;;;;;;51.08;31.63;;;8.90;99.90;;;;;;5015181;28;20058;-86
2022/01/04 11:01:38;;;;;;;56.92;31.88;;;8.90;99.90;;;;;;5004427;28;20495;-89
2022/01/04 11:04:04;;;;;;;44.92;29.98;;;8.80;99.90;;;;;;5000972;28;20037;-88
2022/01/04 11:06:40;;;;;;;45.95;30.00;;;8.70;99.90;;;;;;5014970;28;20034;-87
2022/01/04 11:09:08;;;;;;;45.92;30.02;;;8.80;99.90;;;;;;4989750;28;20065;-88
2022/01/04 11:11:37;;;;;;;37.88;26.52;;;8.90;99.90;;;;;;5015125;28;20010;-88
2022/01/04 11:14:03;;;;;;;38.83;24.60;;;9.10;99.90;;;;;;5003369;28;20026;-87
2022/01/04 11:16:31;;;;;;;34.08;22.88;;;9.30;99.90;;;;;;5000794;28;20190;-88
2022/01/04 11:18:59;;;;;;;34.83;24.50;;;9.30;99.90;;;;;;4997009;28;20037;-87
2022/01/04 11:21:28;;;;;;;38.33;25.70;;;9.40;99.90;;;;;;5005068;28;20526;-89
2022/01/04 11:23:58;;;;;;;34.13;25.02;;;9.50;99.90;;;;;;4996664;28;20109;-87
2022/01/04 11:26:26;;;;;;;39.05;27.63;;;9.60;99.90;;;;;;4997106;28;20054;-88
2022/01/04 11:28:56;;;;;;;39.88;28.20;;;9.70;99.90;;;;;;4987575;28;20021;-87
2022/01/04 11:31:48;;;;;;;39.45;26.73;;;9.80;99.90;;;;;;5021055;28;20057;-86
2022/01/04 11:35:01;;;;;;;41.40;25.52;;;9.90;99.90;;;;;;5000765;28;20080;-88
2022/01/04 11:37:28;;;;;;;;;;;9.90;99.90;;;;;;5034978;28;20032;-94
2022/01/04 11:39:54;;;;;;;37.60;24.83;;;9.90;99.90;;;;;;5023142;28;19910;-95
2022/01/04 11:42:38;;;;;;;35.65;23.80;;;9.90;99.90;;;;;;5015098;28;20034;-88
2022/01/04 11:45:08;;;;;;;32.83;23.27;;;10.00;99.90;;;;;;4993195;28;20042;-88
2022/01/04 11:47:47;;;;;;;30.10;20.98;;;10.00;99.90;;;;;;5007717;28;20545;-90
2022/01/04 11:50:20;;;;;;;32.28;22.75;;;10.00;99.90;;;;;;5022895;28;20127;-84
2022/01/04 11:52:56;;;;;;;31.80;23.17;;;10.00;99.90;;;;;;5015206;28;20476;-87
2022/01/04 11:55:31;;;;;;;36.80;24.60;;;9.80;99.90;;;;;;5019310;28;20114;-83
2022/01/04 11:58:00;;;;;;;48.13;30.48;;;9.60;99.90;;;;;;5013599;28;20455;-86
2022/01/04 12:00:29;;;;;;;47.40;32.63;;;9.40;99.90;;;;;;5015262;28;20045;-86
2022/01/04 12:03:18;;;;;;;60.78;35.00;;;9.10;99.90;;;;;;5017632;28;20112;-86
2022/01/04 12:06:05;;;;;;;62.42;38.58;;;8.90;99.90;;;;;;4988576;28;20037;-86
2022/01/04 12:08:50;;;;;;;72.07;41.67;;;8.70;99.90;;;;;;4998472;28;20026;-87
2022/01/04 12:11:25;;;;;;;64.22;39.22;;;8.60;99.90;;;;;;4996231;28;20628;-86
2022/01/04 12:13:53;;;;;;;69.57;41.47;;;8.50;99.90;;;;;;5003542;28;20024;-87
2022/01/04 12:16:38;;;;;;;72.57;41.75;;;8.50;99.90;;;;;;5015098;28;20022;-86
2022/01/04 12:19:08;;;;;;;71.28;42.47;;;8.50;99.90;;;;;;5024022;28;20028;-83
2022/01/04 12:21:43;;;;;;;69.60;39.75;;;8.50;99.90;;;;;;4998650;28;20041;-86
2022/01/04 12:24:11;;;;;;;62.85;39.53;;;8.50;99.90;;;;;;5009954;28;20095;-85
2022/01/04 12:26:38;;;;;;;58.97;38.40;;;8.60;99.90;;;;;;5017706;28;20121;-86
2022/01/04 12:29:10;;;;;;;64.10;37.00;;;8.60;99.90;;;;;;5023628;28;20033;-85
2022/01/04 12:31:53;;;;;;;65.30;37.45;;;8.60;99.90;;;;;;5006214;28;20030;-86
2022/01/04 12:34:25;;;;;;;;;;;8.60;99.90;;;;;;5020141;28;20102;-85
2022/01/04 12:36:52;;;;;;;60.20;35.55;;;8.50;99.90;;;;;;5021753;28;19937;-86
2022/01/04 12:39:20;;;;;;;56.60;35.80;;;8.50;99.90;;;;;;5027977;28;20049;-86
2022/01/04 12:41:56;;;;;;;64.10;35.55;;;8.60;99.90;;;;;;5018495;28;20029;-83
2022/01/04 12:44:30;;;;;;;50.58;31.48;;;8.70;99.90;;;;;;5002397;28;20072;-84
2022/01/04 12:46:59;;;;;;;47.17;30.27;;;8.90;99.90;;;;;;5013196;28;20425;-84
2022/01/04 12:49:29;;;;;;;49.63;29.92;;;9.10;99.90;;;;;;5014746;28;20455;-83
2022/01/04 12:52:21;;;;;;;44.15;29.67;;;9.30;99.90;;;;;;5022512;28;20020;-84
2022/01/04 12:54:47;;;;;;;43.43;28.90;;;9.40;99.90;;;;;;5018435;28;20113;-84
2022/01/04 12:57:26;;;;;;;67.47;34.08;;;9.60;99.90;;;;;;4998191;28;20284;-84
2022/01/04 12:59:56;;;;;;;61.72;35.63;;;9.70;99.90;;;;;;5016260;28;20034;-87
2022/01/04 13:02:25;;;;;;;49.65;29.40;;;9.80;99.90;;;;;;5021992;28;20073;-85
2022/01/04 13:04:57;;;;;;;42.70;27.42;;;10.00;99.90;;;;;;5017043;28;20081;-89
2022/01/04 13:07:24;;;;;;;68.55;34.92;;;10.00;99.90;;;;;;5011784;28;20101;-85
2022/01/04 13:09:54;;;;;;;58.08;31.25;;;10.00;99.90;;;;;;4994235;28;20125;-85
2022/01/04 13:12:27;;;;;;;46.00;29.90;;;10.00;99.90;;;;;;5006003;28;20472;-85
2022/01/04 13:14:54;;;;;;;43.90;30.58;;;9.80;99.90;;;;;;5022078;28;20080;-86
2022/01/04 13:17:20;;;;;;;49.55;30.67;;;9.80;99.90;;;;;;5030866;28;20029;-85
2022/01/04 13:19:50;;;;;;;43.17;30.42;;;9.60;99.90;;;;;;5002502;28;20069;-85
2022/01/04 13:22:23;;;;;;;50.30;31.02;;;9.60;99.90;;;;;;4994991;28;20030;-85
2022/01/04 13:24:58;;;;;;;59.15;32.90;;;9.70;99.90;;;;;;4995329;28;20030;-85
2022/01/04 13:27:36;;;;;;;51.28;33.63;;;9.50;99.90;;;;;;4997844;28;20021;-86
2022/01/04 13:30:17;;;;;;;48.30;32.47;;;9.50;99.90;;;;;;5021687;28;20017;-87
2022/01/04 13:32:53;;;;;;;55.67;32.05;;;9.50;99.90;;;;;;5008469;28;20052;-86
2022/01/04 13:35:30;;;;;;;51.95;32.17;;;9.50;99.90;;;;;;4996212;28;20112;-86
2022/01/04 13:38:22;;;;;;;56.38;35.92;;;9.30;99.90;;;;;;5009998;28;20033;-86
2022/01/04 13:40:55;;;;;;;66.18;36.45;;;9.00;99.90;;;;;;5007466;28;20225;-86
2022/01/04 13:43:28;;;;;;;;;;;8.90;99.90;;;;;;5013231;28;20029;-85
2022/01/04 13:46:07;;;;;;;57.55;35.85;;;9.00;99.90;;;;;;5008033;28;20488;-86
2022/01/04 13:48:35;;;;;;;58.20;33.92;;;9.00;99.90;;;;;;5014943;28;20107;-86
2022/01/04 13:51:05;;;;;;;53.45;31.77;;;9.00;99.90;;;;;;5000615;28;20030;-87
2022/01/04 13:53:38;;;;;;;55.92;31.83;;;9.10;99.90;;;;;;5011799;28;20033;-87
2022/01/04 13:56:07;;;;;;;53.25;30.98;;;9.30;99.90;;;;;;5023493;28;20025;-87
2022/01/04 13:58:43;;;;;;;47.33;30.33;;;9.30;99.90;;;;;;5022469;28;20104;-86
2022/01/04 14:01:23;;;;;;;53.95;29.50;;;9.40;99.90;;;;;;5046857;28;20044;-86
2022/01/04 14:03:57;;;;;;;51.13;30.90;;;9.50;99.90;;;;;;5047267;28;20559;-90
2022/01/04 14:06:51;;;;;;;53.72;31.35;;;9.60;99.90;;;;;;5032951;28;20056;-89
2022/01/04 14:09:33;;;;;;;51.40;31.58;;;9.70;99.90;;;;;;5037009;28;20034;-88
2022/01/04 14:12:07;;;;;;;57.97;33.85;;;9.80;99.90;;;;;;5043003;28;20027;-85
2022/01/04 14:14:46;;;;;;;60.60;35.20;;;9.70;99.90;;;;;;5023823;28;20034;-88
2022/01/04 14:17:30;;;;;;;55.63;33.58;;;9.60;99.90;;;;;;5026353;28;20025;-85
2022/01/04 14:20:09;;;;;;;56.85;33.83;;;9.50;99.90;;;;;;5044790;28;20433;-87
2022/01/04 14:22:40;;;;;;;57.58;35.45;;;9.50;99.90;;;;;;5030523;28;20052;-85
2022/01/04 14:25:15;;;;;;;54.80;34.10;;;9.50;99.90;;;;;;5026876;28;20043;-86
2022/01/04 14:27:45;;;;;;;50.55;34.25;;;9.60;99.90;;;;;;5025968;28;20036;-86
2022/01/04 14:30:24;;;;;;;53.20;34.97;;;9.60;99.90;;;;;;5030916;28;20395;-85
2022/01/04 14:32:52;;;;;;;63.38;35.20;;;9.60;99.90;;;;;;5036295;28;20676;-85
2022/01/04 14:35:29;;;;;;;52.38;33.70;;;9.50;99.90;;;;;;5042985;28;20375;-84
2022/01/04 14:37:58;;;;;;;53.40;31.50;;;9.40;99.90;;;;;;5026073;28;20036;-84
2022/01/04 14:40:35;;;;;;;49.83;31.55;;;9.30;99.90;;;;;;5030603;28;20378;-84
2022/01/04 14:43:01;;;;;;;47.72;31.77;;;9.30;99.90;;;;;;5031905;28;20029;-84
2022/01/04 14:45:33;;;;;;;52.58;32.03;;;9.20;99.90;;;;;;5030375;28;20025;-85
2022/01/04 14:47:59;;;;;;;59.20;33.27;;;9.20;99.90;;;;;;5035136;28;20032;-85
2022/01/04 14:50:24;;;;;;;59.10;36.08;;;9.00;99.90;;;;;;5022918;28;20025;-83
2022/01/04 14:52:51;;;;;;;52.13;33.33;;;9.00;99.90;;;;;;5040287;28;20033;-85
2022/01/04 14:55:17;;;;;;;47.50;31.98;;;9.00;99.90;;;;;;5043851;28;20108;-85
2022/01/04 14:57:43;;;;;;;51.97;33.17;;;9.10;99.90;;;;;;5053710;28;20549;-85
2022/01/04 15:00:12;;;;;;;50.95;33.25;;;9.20;99.90;;;;;;5040370;28;20053;-84
2022/01/04 15:02:43;;;;;;;50.47;32.60;;;9.20;99.90;;;;;;5051096;28;20032;-84
2022/01/04 15:05:09;;;;;;;54.03;33.67;;;9.30;99.90;;;;;;5024252;28;20056;-84
2022/01/04 15:07:35;;;;;;;58.40;34.30;;;9.40;99.90;;;;;;5021602;28;20034;-87
2022/01/04 15:10:01;;;;;;;70.82;40.28;;;9.30;99.90;;;;;;5040586;28;20113;-89
2022/01/04 15:12:30;;;;;;;68.55;42.20;;;9.20;99.90;;;;;;4982546;28;20246;-85
2022/01/04 15:14:56;;;;;;;69.43;42.83;;;9.10;99.90;;;;;;5041232;28;20029;-86
2022/01/04 15:17:21;;;;;;;74.55;44.08;;;9.10;99.90;;;;;;5020139;28;20032;-90
2022/01/04 15:19:48;;;;;;;68.22;40.88;;;9.10;99.90;;;;;;5041250;28;20033;-85
2022/01/04 15:22:20;;;;;;;73.72;44.70;;;9.00;99.90;;;;;;5024333;28;20075;-88
2022/01/04 15:24:47;;;;;;;72.22;42.72;;;9.00;99.90;;;;;;5016322;28;20052;-88
2022/01/04 15:27:23;;;;;;;69.43;44.72;;;9.10;99.90;;;;;;5036740;28;20033;-88
2022/01/04 15:29:49;;;;;;;80.90;49.85;;;9.10;99.90;;;;;;5033845;28;20111;-88
2022/01/04 15:32:15;;;;;;;80.03;47.33;;;9.00;99.90;;;;;;5033639;28;20029;-88
2022/01/04 15:34:41;;;;;;;88.40;46.15;;;9.00;99.90;;;;;;5034826;28;20008;-88
2022/01/04 15:37:07;;;;;;;68.25;43.95;;;9.00;99.90;;;;;;5049486;28;20022;-88
2022/01/04 15:39:35;;;;;;;71.07;45.28;;;9.00;99.90;;;;;;5027610;28;20164;-87
2022/01/04 15:42:02;;;;;;;74.22;46.08;;;9.00;99.90;;;;;;5024449;28;20021;-88
2022/01/04 15:44:31;;;;;;;86.60;51.55;;;9.00;99.90;;;;;;5026320;28;20045;-90
2022/01/04 15:46:59;;;;;;;79.28;47.95;;;8.90;99.90;;;;;;5032031;28;20057;-89
2022/01/04 15:49:26;;;;;;;77.57;49.22;;;8.90;99.90;;;;;;5042587;28;20009;-87
2022/01/04 15:51:52;;;;;;;89.07;51.33;;;8.80;99.90;;;;;;5038859;28;20025;-89
2022/01/04 15:54:21;;;;;;;82.40;46.28;;;8.80;99.90;;;;;;5046779;28;20029;-89
2022/01/04 15:56:47;;;;;;;81.80;46.58;;;8.70;99.90;;;;;;5042542;28;20034;-89
2022/01/04 15:59:13;;;;;;;90.57;45.47;;;8.70;99.90;;;;;;5028493;28;20198;-89
2022/01/04 16:01:40;;;;;;;79.68;44.58;;;8.60;99.90;;;;;;5032897;28;20097;-88
2022/01/04 16:04:06;;;;;;;84.07;43.97;;;8.60;99.90;;;;;;5009120;28;20515;-89
2022/01/04 16:06:32;;;;;;;97.60;46.85;;;8.60;99.90;;;;;;5014110;28;20033;-91
2022/01/04 16:08:58;;;;;;;87.45;47.75;;;8.70;99.90;;;;;;4998288;28;20385;-88
2022/01/04 16:11:47;;;;;;;97.20;46.58;;;8.60;99.90;;;;;;5012909;28;20033;-94
2022/01/04 16:14:13;;;;;;;75.88;44.22;;;8.70;99.90;;;;;;5017969;28;20038;-89
2022/01/04 16:16:47;;;;;;;88.18;44.75;;;8.60;99.90;;;;;;4999369;28;20126;-91
2022/01/04 16:22:01;;;;;;;72.95;42.80;;;8.70;99.90;;;;;;5024428;28;20036;-89
2022/01/04 16:24:27;;;;;;;79.65;42.70;;;8.80;99.90;;;;;;4996341;28;20042;-89
2022/01/04 16:26:59;;;;;;;81.55;43.20;;;8.90;99.90;;;;;;5003953;28;20388;-88
2022/01/04 16:29:26;;;;;;;69.18;40.08;;;8.80;99.90;;;;;;4993688;28;20174;-89
2022/01/04 16:31:55;;;;;;;67.95;38.58;;;8.90;99.90;;;;;;5015347;28;20777;-88
2022/01/04 16:34:24;;;;;;;64.15;36.92;;;9.00;99.90;;;;;;5013996;28;20083;-89
2022/01/04 16:36:53;;;;;;;62.20;37.25;;;9.20;99.90;;;;;;5012125;28;20013;-89
2022/01/04 16:39:22;;;;;;;78.20;41.85;;;9.20;99.90;;;;;;5020952;28;20117;-89
2022/01/04 16:41:49;;;;;;;69.50;40.88;;;9.30;99.90;;;;;;5011492;28;20029;-89
2022/01/04 16:44:15;;;;;;;68.85;41.13;;;9.40;99.90;;;;;;5013556;28;20033;-88
2022/01/04 16:46:44;;;;;;;65.00;39.30;;;9.50;99.90;;;;;;5010952;28;20034;-89
2022/01/04 16:49:12;;;;;;;67.32;38.28;;;9.40;99.90;;;;;;5008643;28;20034;-87
2022/01/04 16:51:45;;;;;;;64.13;36.00;;;9.50;99.90;;;;;;5019581;28;20046;-88
2022/01/04 16:54:12;;;;;;;54.17;34.05;;;9.60;99.90;;;;;;4997958;28;20033;-88
2022/01/04 16:56:39;;;;;;;53.95;34.47;;;9.60;99.90;;;;;;5008386;28;20041;-87
2022/01/04 16:59:06;;;;;;;56.63;34.55;;;9.60;99.90;;;;;;4983130;28;20018;-85
2022/01/04 17:01:34;;;;;;;59.85;34.97;;;9.60;99.90;;;;;;5035462;28;20099;-87
2022/01/04 17:04:01;;;;;;;57.53;35.13;;;9.60;99.90;;;;;;5017271;28;20026;-90
2022/01/04 17:06:27;;;;;;;52.33;34.38;;;9.70;99.90;;;;;;5025199;28;20053;-87
2022/01/04 17:08:57;;;;;;;55.30;33.20;;;9.60;99.90;;;;;;5028151;28;20025;-87
2022/01/04 17:11:25;;;;;;;54.00;34.40;;;9.70;99.90;;;;;;5027705;28;20025;-87
2022/01/04 17:16:37;;;;;;;54.03;34.47;;;9.70;99.90;;;;;;5043982;28;20422;-89
2022/01/04 17:19:04;;;;;;;56.92;35.17;;;9.70;99.90;;;;;;5036556;28;21050;-89
2022/01/04 17:21:31;;;;;;;67.13;37.92;;;9.70;99.90;;;;;;5035534;28;20511;-88
2022/01/04 17:24:00;;;;;;;54.83;37.78;;;9.60;99.90;;;;;;5025202;28;20049;-89
2022/01/04 17:26:26;;;;;;;56.63;35.80;;;9.60;99.90;;;;;;5020570;28;20042;-89
2022/01/04 17:28:52;;;;;;;60.30;34.28;;;9.70;99.90;;;;;;5033588;28;20014;-88
2022/01/04 17:31:18;;;;;;;61.85;34.47;;;9.60;99.90;;;;;;5023906;28;20107;-90
2022/01/04 17:33:44;;;;;;;53.28;34.10;;;9.70;99.90;;;;;;5018884;28;20037;-87
2022/01/04 17:36:10;;;;;;;54.35;36.03;;;9.70;99.90;;;;;;5028652;28;20534;-87
2022/01/04 17:38:36;;;;;;;59.75;37.33;;;9.70;99.90;;;;;;5032220;28;20033;-87
2022/01/04 17:41:02;;;;;;;62.03;40.33;;;9.60;99.90;;;;;;5023313;28;20021;-87
2022/01/04 17:43:28;;;;;;;62.40;39.78;;;9.70;99.90;;;;;;5033331;28;20080;-90
2022/01/04 17:45:56;;;;;;;64.05;38.53;;;9.70;99.90;;;;;;5030740;28;20443;-89
2022/01/04 17:48:23;;;;;;;55.40;35.92;;;9.60;99.90;;;;;;5030861;28;20079;-89
2022/01/04 17:50:49;;;;;;;58.08;35.15;;;9.60;99.90;;;;;;5023326;28;20128;-89
2022/01/04 17:53:16;;;;;;;62.90;37.78;;;9.60;99.90;;;;;;5022139;28;20009;-89